createdAt,value
2023-01-02T00:01:30.483Z,12.50
2023-01-02T00:03:58.743Z,12.40
2023-01-02T00:06:28.825Z,12.50
2023-01-02T00:08:57.775Z,12.50
2023-01-02T00:11:25.761Z,12.50
2023-01-02T00:13:55.804Z,12.50
2023-01-02T00:16:26.125Z,12.50
2023-01-02T00:18:54.220Z,12.50
2023-01-02T00:21:23.150Z,12.50
2023-01-02T00:23:51.132Z,12.50
2023-01-02T00:26:19.155Z,12.50
2023-01-02T00:28:48.108Z,12.50
2023-01-02T00:31:15.142Z,12.50
2023-01-02T00:33:42.148Z,12.50
2023-01-02T00:36:12.991Z,12.50
2023-01-02T00:38:42.952Z,12.50
2023-01-02T00:41:10.931Z,12.50
2023-01-02T00:43:40.933Z,12.50
2023-01-02T00:46:11.542Z,12.50
2023-01-02T00:48:40.577Z,12.60
2023-01-02T00:51:10.744Z,12.50
2023-01-02T00:53:39.877Z,12.60
2023-01-02T00:56:08.069Z,12.60
2023-01-02T00:58:36.310Z,12.60
2023-01-02T01:01:06.383Z,12.60
2023-01-02T01:03:36.538Z,12.70
2023-01-02T01:06:09.861Z,12.70
2023-01-02T01:08:40.045Z,12.70
2023-01-02T01:11:13.595Z,12.80
2023-01-02T01:13:41.791Z,12.80
2023-01-02T01:16:13.529Z,12.90
2023-01-02T01:18:44.514Z,12.80
2023-01-02T01:21:16.973Z,12.80
2023-01-02T01:23:44.721Z,12.90
2023-01-02T01:26:13.804Z,12.80
2023-01-02T01:28:41.754Z,12.90
2023-01-02T01:31:15.329Z,12.90
2023-01-02T01:33:45.661Z,12.90
2023-01-02T01:36:22.612Z,12.80
2023-01-02T01:38:51.866Z,12.80
2023-01-02T01:41:22.723Z,12.80
2023-01-02T01:43:54.910Z,12.80
2023-01-02T01:46:36.873Z,12.80
2023-01-02T01:49:14.470Z,12.80
2023-01-02T01:51:59.037Z,12.80
2023-01-02T01:54:44.239Z,12.70
2023-01-02T01:57:46.556Z,12.70
2023-01-02T02:00:14.759Z,12.70
2023-01-02T02:02:46.633Z,12.70
2023-01-02T02:05:18.275Z,12.70
2023-01-02T02:08:18.479Z,12.60
2023-01-02T02:10:49.415Z,12.60
2023-01-02T02:13:17.036Z,12.50
2023-01-02T02:16:09.183Z,12.60
2023-01-02T02:19:07.084Z,12.50
2023-01-02T02:21:55.062Z,12.50
2023-01-02T02:24:31.039Z,12.50
2023-01-02T02:27:26.075Z,12.40
2023-01-02T02:30:16.055Z,12.40
2023-01-02T02:33:06.936Z,12.30
2023-01-02T02:36:15.424Z,12.30
2023-01-02T02:38:51.019Z,12.30
2023-01-02T02:41:34.592Z,12.20
2023-01-02T02:44:35.882Z,12.20
2023-01-02T02:47:28.258Z,12.20
2023-01-02T02:50:01.119Z,12.20
2023-01-02T02:52:44.205Z,12.20
2023-01-02T02:55:25.937Z,12.10
2023-01-02T02:57:58.767Z,12.20
2023-01-02T03:00:25.791Z,12.20
2023-01-02T03:03:00.888Z,12.10
2023-01-02T03:05:41.051Z,12.20
2023-01-02T03:08:28.088Z,12.10
2023-01-02T03:11:01.510Z,12.20
2023-01-02T03:13:57.758Z,12.20
2023-01-02T03:16:42.087Z,12.00
2023-01-02T03:19:23.231Z,11.80
2023-01-02T03:22:06.306Z,11.60
2023-01-02T03:24:37.160Z,11.50
2023-01-02T03:27:19.549Z,11.40
2023-01-02T03:30:11.625Z,11.30
2023-01-02T03:32:45.824Z,11.20
2023-01-02T03:35:17.544Z,11.10
2023-01-02T03:37:51.941Z,11.00
2023-01-02T03:40:26.025Z,11.00
2023-01-02T03:43:04.063Z,10.90
2023-01-02T03:45:46.989Z,10.90
2023-01-02T03:48:29.096Z,10.90
2023-01-02T03:51:00.916Z,10.90
2023-01-02T03:53:28.556Z,10.90
2023-01-02T03:56:34.334Z,10.90
2023-01-02T03:59:09.443Z,10.90
2023-01-02T04:02:01.516Z,10.90
2023-01-02T04:05:01.200Z,10.90
2023-01-02T04:07:41.494Z,10.90
2023-01-02T04:10:13.354Z,10.90
2023-01-02T04:12:45.517Z,10.90
2023-01-02T04:15:15.281Z,10.80
2023-01-02T04:18:12.448Z,10.80
2023-01-02T04:20:46.354Z,10.80
2023-01-02T04:23:20.939Z,10.70
2023-01-02T04:26:23.674Z,10.70
2023-01-02T04:28:54.277Z,10.70
2023-01-02T04:31:37.833Z,10.60
2023-01-02T04:34:09.487Z,10.60
2023-01-02T04:36:41.008Z,10.60
2023-01-02T04:39:11.370Z,10.60
2023-01-02T04:41:39.665Z,10.60
2023-01-02T04:44:07.678Z,10.50
2023-01-02T04:46:34.643Z,10.50
2023-01-02T04:49:01.567Z,10.50
2023-01-02T04:51:30.594Z,10.50
2023-01-02T04:53:57.601Z,10.50
2023-01-02T04:56:26.546Z,10.40
2023-01-02T04:58:54.443Z,10.40
2023-01-02T05:01:22.607Z,10.40
2023-01-02T05:03:52.990Z,10.40
2023-01-02T05:06:20.383Z,10.40
2023-01-02T05:08:47.507Z,10.40
2023-01-02T05:11:19.387Z,10.30
2023-01-02T05:13:48.448Z,10.30
2023-01-02T05:16:18.433Z,10.30
2023-01-02T05:18:48.599Z,10.30
2023-01-02T05:21:37.018Z,10.30
2023-01-02T05:24:05.478Z,10.20
2023-01-02T05:26:35.560Z,10.20
2023-01-02T05:29:08.475Z,10.20
2023-01-02T05:31:37.501Z,10.20
2023-01-02T05:34:04.658Z,10.20
2023-01-02T05:36:31.786Z,10.20
2023-01-02T05:39:01.708Z,10.20
2023-01-02T05:41:29.627Z,10.20
2023-01-02T05:43:57.616Z,10.20
2023-01-02T05:46:26.614Z,10.20
2023-01-02T05:48:54.555Z,10.20
2023-01-02T05:51:22.506Z,10.20
2023-01-02T05:53:50.980Z,10.10
2023-01-02T05:56:19.075Z,10.20
2023-01-02T05:58:50.183Z,10.10
2023-01-02T06:01:30.338Z,10.10
2023-01-02T06:04:00.761Z,10.10
2023-01-02T06:06:38.864Z,10.10
2023-01-02T06:09:08.962Z,10.10
2023-01-02T06:11:39.020Z,10.00
2023-01-02T06:14:08.413Z,10.00
2023-01-02T06:16:35.468Z,10.00
2023-01-02T06:19:05.903Z,9.90
2023-01-02T06:21:35.973Z,9.90
2023-01-02T06:24:06.129Z,9.90
2023-01-02T06:26:35.490Z,9.90
2023-01-02T06:29:05.751Z,9.90
2023-01-02T06:31:39.100Z,9.90
2023-01-02T06:34:10.147Z,9.90
2023-01-02T06:36:39.120Z,9.90
2023-01-02T06:39:07.147Z,9.90
2023-01-02T06:41:37.240Z,9.90
2023-01-02T06:44:05.200Z,9.90
2023-01-02T06:46:35.231Z,9.90
2023-01-02T06:49:05.248Z,9.80
2023-01-02T06:51:35.193Z,9.80
2023-01-02T06:54:04.242Z,9.80
2023-01-02T06:56:34.192Z,9.80
2023-01-02T06:59:01.198Z,9.80
2023-01-02T07:01:30.374Z,9.90
2023-01-02T07:03:58.451Z,9.90
2023-01-02T07:06:27.931Z,9.90
2023-01-02T07:08:56.914Z,9.90
2023-01-02T07:11:26.044Z,9.90
2023-01-02T07:13:54.893Z,9.80
2023-01-02T07:16:24.953Z,9.80
2023-01-02T07:18:54.547Z,9.90
2023-01-02T07:21:24.522Z,9.90
2023-01-02T07:23:54.585Z,9.80
2023-01-02T07:26:23.030Z,9.80
2023-01-02T07:28:50.061Z,9.70
2023-01-02T07:31:21.289Z,9.70
2023-01-02T07:33:49.737Z,9.80
2023-01-02T07:36:22.587Z,9.70
2023-01-02T07:38:55.109Z,9.70
2023-01-02T07:41:28.167Z,9.70
2023-01-02T07:43:57.124Z,9.70
2023-01-02T07:46:25.514Z,9.70
2023-01-02T07:48:55.593Z,9.70
2023-01-02T07:51:27.409Z,9.70
2023-01-02T07:53:56.766Z,9.70
2023-01-02T07:56:26.949Z,9.70
2023-01-02T07:58:57.072Z,9.70
2023-01-02T08:01:26.359Z,9.80
2023-01-02T08:03:53.469Z,9.70
2023-01-02T08:06:21.712Z,9.70
2023-01-02T08:08:50.063Z,9.70
2023-01-02T08:11:21.763Z,9.70
2023-01-02T08:13:50.268Z,9.70
2023-01-02T08:16:20.243Z,9.70
2023-01-02T08:18:55.793Z,9.70
2023-01-02T08:21:24.392Z,9.70
2023-01-02T08:23:53.660Z,9.70
2023-01-02T08:26:24.169Z,9.70
2023-01-02T08:28:54.206Z,9.70
2023-01-02T08:31:22.492Z,9.70
2023-01-02T08:33:52.599Z,9.80
2023-01-02T08:36:22.526Z,9.80
2023-01-02T08:38:51.522Z,9.80
2023-01-02T08:41:40.893Z,9.80
2023-01-02T08:44:10.848Z,9.80
2023-01-02T08:46:43.133Z,9.80
2023-01-02T08:49:13.491Z,9.80
2023-01-02T08:51:41.539Z,9.80
2023-01-02T08:54:08.554Z,9.80
2023-01-02T08:56:37.789Z,9.80
2023-01-02T08:59:10.318Z,9.90
2023-01-02T09:01:39.339Z,9.90
2023-01-02T09:04:12.412Z,9.90
2023-01-02T09:06:40.709Z,9.90
2023-01-02T09:09:12.061Z,10.00
2023-01-02T09:11:45.153Z,10.10
2023-01-02T09:14:12.272Z,10.10
2023-01-02T09:16:42.428Z,10.20
2023-01-02T09:19:10.468Z,10.20
2023-01-02T09:21:43.402Z,10.30
2023-01-02T09:24:13.640Z,10.30
2023-01-02T09:26:44.014Z,10.30
2023-01-02T09:29:14.706Z,10.20
2023-01-02T09:31:43.763Z,10.20
2023-01-02T09:34:10.980Z,10.20
2023-01-02T09:36:39.573Z,10.10
2023-01-02T09:39:06.777Z,10.10
2023-01-02T09:41:38.524Z,10.10
2023-01-02T09:44:38.163Z,10.00
2023-01-02T09:47:11.002Z,10.10
2023-01-02T09:49:52.032Z,10.10
2023-01-02T09:52:21.740Z,10.20
2023-01-02T09:54:49.823Z,10.20
2023-01-02T09:57:22.468Z,10.50
2023-01-02T10:00:26.629Z,10.70
2023-01-02T10:03:11.514Z,10.80
2023-01-02T10:05:56.723Z,10.90
2023-01-02T10:08:40.718Z,10.90
2023-01-02T10:11:38.185Z,10.80
2023-01-02T10:14:44.979Z,10.70
2023-01-02T10:17:15.620Z,10.70
2023-01-02T10:20:24.269Z,10.60
2023-01-02T10:22:58.536Z,10.50
2023-01-02T10:25:53.005Z,10.50
2023-01-02T10:28:54.328Z,10.50
2023-01-02T10:31:28.704Z,10.40
2023-01-02T10:34:00.848Z,10.40
2023-01-02T10:36:34.792Z,10.30
2023-01-02T10:39:05.111Z,10.30
2023-01-02T10:41:35.415Z,10.20
2023-01-02T10:44:14.816Z,10.20
2023-01-02T10:46:43.817Z,10.20
2023-01-02T10:49:13.655Z,10.10
2023-01-02T10:52:03.073Z,10.10
2023-01-02T10:54:58.556Z,10.10
2023-01-02T10:57:45.365Z,10.00
2023-01-02T11:00:22.536Z,9.90
2023-01-02T11:02:58.720Z,9.90
2023-01-02T11:05:30.794Z,9.90
2023-01-02T11:08:13.472Z,9.90
2023-01-02T11:10:41.217Z,10.00
2023-01-02T11:13:17.162Z,10.00
2023-01-02T11:16:02.408Z,10.00
2023-01-02T11:18:34.676Z,10.00
2023-01-02T11:21:07.927Z,10.00
2023-01-02T11:23:39.573Z,10.00
2023-01-02T11:26:19.463Z,10.00
2023-01-02T11:28:51.868Z,9.90
2023-01-02T11:31:22.981Z,10.00
2023-01-02T11:33:52.101Z,10.00
2023-01-02T11:36:22.763Z,10.10
2023-01-02T11:38:56.922Z,10.20
2023-01-02T11:42:13.321Z,10.30
2023-01-02T11:45:10.643Z,10.50
2023-01-02T11:47:46.859Z,10.60
2023-01-02T11:50:31.422Z,10.70
2023-01-02T11:53:12.416Z,10.80
2023-01-02T11:55:47.625Z,10.90
2023-01-02T11:58:26.904Z,11.10
2023-01-02T12:01:24.978Z,11.10
2023-01-02T12:04:01.297Z,11.10
2023-01-02T12:06:39.835Z,11.10
2023-01-02T12:09:12.797Z,11.00
2023-01-02T12:12:07.258Z,10.90
2023-01-02T12:14:54.123Z,10.80
2023-01-02T12:17:48.181Z,10.70
2023-01-02T12:20:45.994Z,10.70
2023-01-02T12:24:01.111Z,10.70
2023-01-02T12:26:38.334Z,10.60
2023-01-02T12:29:47.712Z,10.70
2023-01-02T12:32:41.901Z,10.60
2023-01-02T12:35:21.054Z,10.60
2023-01-02T12:37:59.533Z,10.70
2023-01-02T12:40:32.654Z,10.70
2023-01-02T12:43:11.677Z,10.80
2023-01-02T12:45:51.006Z,10.80
2023-01-02T12:48:26.648Z,11.00
2023-01-02T12:51:07.846Z,11.10
2023-01-02T12:54:19.485Z,11.20
2023-01-02T12:56:59.742Z,11.20
2023-01-02T12:59:41.684Z,11.10
2023-01-02T13:02:11.851Z,11.00
2023-01-02T13:04:44.262Z,11.00
2023-01-02T13:07:37.072Z,10.90
2023-01-02T13:10:13.593Z,10.90
2023-01-02T13:12:48.060Z,10.90
2023-01-02T13:15:37.477Z,10.90
2023-01-02T13:19:00.689Z,11.00
2023-01-02T13:21:56.067Z,11.10
2023-01-02T13:24:26.932Z,11.10
2023-01-02T13:26:58.320Z,11.20
2023-01-02T13:29:39.820Z,11.20
2023-01-02T13:32:06.952Z,11.20
2023-01-02T13:34:36.063Z,11.20
2023-01-02T13:37:09.777Z,11.10
2023-01-02T13:39:48.268Z,11.00
2023-01-02T13:42:53.586Z,10.80
2023-01-02T13:45:31.274Z,10.70
2023-01-02T13:48:05.657Z,10.70
2023-01-02T13:50:32.638Z,10.70
2023-01-02T13:53:10.602Z,10.70
2023-01-02T13:55:43.683Z,10.60
2023-01-02T13:58:17.772Z,10.50
2023-01-02T14:00:54.791Z,10.50
2023-01-02T14:03:25.119Z,10.50
2023-01-02T14:06:04.103Z,10.40
2023-01-02T14:08:38.668Z,10.40
2023-01-02T14:11:05.623Z,10.50
2023-01-02T14:13:47.862Z,10.50
2023-01-02T14:16:56.324Z,10.40
2023-01-02T14:19:25.984Z,10.40
2023-01-02T14:21:59.966Z,10.40
2023-01-02T14:24:46.249Z,10.40
2023-01-02T14:27:26.110Z,10.30
2023-01-02T14:30:08.875Z,10.40
2023-01-02T14:32:38.662Z,10.40
2023-01-02T14:35:16.842Z,10.40
2023-01-02T14:37:48.188Z,10.40
2023-01-02T14:40:39.525Z,10.40
2023-01-02T14:43:36.009Z,10.50
2023-01-02T14:46:26.906Z,10.40
2023-01-02T14:49:00.994Z,10.40
2023-01-02T14:52:00.241Z,10.40
2023-01-02T14:54:33.476Z,10.40
2023-01-02T14:57:24.352Z,10.40
2023-01-02T15:00:05.216Z,10.40
2023-01-02T15:02:38.063Z,10.40
2023-01-02T15:05:10.154Z,10.40
2023-01-02T15:07:47.021Z,10.40
2023-01-02T15:10:22.774Z,10.50
2023-01-02T15:13:09.012Z,10.50
2023-01-02T15:15:42.134Z,10.60
2023-01-02T15:18:33.542Z,10.50
2023-01-02T15:21:09.760Z,10.60
2023-01-02T15:23:47.201Z,10.60
2023-01-02T15:26:35.018Z,10.60
2023-01-02T15:29:19.947Z,10.50
2023-01-02T15:31:56.389Z,10.40
2023-01-02T15:34:33.163Z,10.30
2023-01-02T15:37:07.674Z,10.20
2023-01-02T15:39:43.819Z,10.10
2023-01-02T15:42:36.237Z,10.00
2023-01-02T15:45:21.394Z,10.00
2023-01-02T15:47:51.068Z,9.90
2023-01-02T15:50:29.223Z,9.80
2023-01-02T15:53:07.436Z,9.80
2023-01-02T15:55:40.145Z,9.70
2023-01-02T15:58:36.540Z,9.70
2023-01-02T16:01:19.699Z,9.60
2023-01-02T16:04:00.848Z,9.60
2023-01-02T16:06:44.336Z,9.60
2023-01-02T16:09:38.941Z,9.60
2023-01-02T16:12:06.390Z,9.60
2023-01-02T16:14:41.775Z,9.60
2023-01-02T16:17:11.786Z,9.60
2023-01-02T16:20:07.501Z,9.60
2023-01-02T16:22:56.400Z,9.60
2023-01-02T16:25:29.802Z,9.60
2023-01-02T16:27:59.046Z,9.50
2023-01-02T16:30:32.689Z,9.60
2023-01-02T16:33:23.863Z,9.50
2023-01-02T16:36:14.877Z,9.50
2023-01-02T16:38:54.492Z,9.50
2023-01-02T16:42:16.938Z,9.40
2023-01-02T16:44:54.315Z,9.30
2023-01-02T16:47:27.923Z,9.30
2023-01-02T16:49:55.400Z,9.30
2023-01-02T16:52:25.336Z,9.30
2023-01-02T16:54:55.474Z,9.20
2023-01-02T16:57:25.751Z,9.20
2023-01-02T16:59:55.756Z,9.20
2023-01-02T17:02:22.729Z,9.20
2023-01-02T17:04:50.810Z,9.20
2023-01-02T17:07:22.512Z,9.10
2023-01-02T17:09:49.974Z,9.10
2023-01-02T17:12:16.985Z,9.10
2023-01-02T17:14:44.030Z,9.10
2023-01-02T17:17:11.200Z,9.10
2023-01-02T17:19:41.269Z,9.00
2023-01-02T17:22:08.305Z,9.00
2023-01-02T17:24:38.560Z,9.00
2023-01-02T17:27:06.971Z,9.00
2023-01-02T17:29:33.955Z,9.00
2023-01-02T17:32:04.969Z,9.00
2023-01-02T17:34:32.652Z,9.00
2023-01-02T17:37:02.987Z,9.10
2023-01-02T17:39:33.088Z,9.10
2023-01-02T17:42:03.244Z,9.10
2023-01-02T17:44:31.350Z,9.10
2023-01-02T17:49:47.051Z,9.20
2023-01-02T17:52:17.604Z,9.20
2023-01-02T17:54:51.186Z,9.20
2023-01-02T17:57:23.876Z,9.30
2023-01-02T17:59:51.927Z,9.30
2023-01-02T18:02:21.763Z,9.30
2023-01-02T18:04:54.822Z,9.30
2023-01-02T18:07:25.431Z,9.30
2023-01-02T18:10:07.480Z,9.40
2023-01-02T18:12:37.888Z,9.40
2023-01-02T18:15:14.711Z,9.30
2023-01-02T18:17:44.692Z,9.20
2023-01-02T18:20:20.559Z,9.20
2023-01-02T18:22:50.815Z,9.20
2023-01-02T18:25:30.027Z,9.20
2023-01-02T18:28:01.712Z,9.10
2023-01-02T18:30:29.382Z,9.10
2023-01-02T18:33:15.634Z,9.10
2023-01-02T18:36:02.187Z,9.10
2023-01-02T18:38:38.233Z,9.10
2023-01-02T18:41:26.990Z,9.10
2023-01-02T18:44:22.590Z,9.10
2023-01-02T18:47:03.205Z,9.10
2023-01-02T18:49:41.126Z,9.00
2023-01-02T18:52:25.822Z,9.00
2023-01-02T18:54:59.030Z,9.00
2023-01-02T18:57:31.411Z,9.00
2023-01-02T19:00:12.424Z,9.00
2023-01-02T19:02:51.584Z,8.90
2023-01-02T19:05:44.069Z,8.90
2023-01-02T19:08:37.161Z,8.90
2023-01-02T19:11:41.743Z,8.90
2023-01-02T19:14:42.060Z,8.90
2023-01-02T19:17:28.648Z,8.90
2023-01-02T19:19:59.515Z,8.80
2023-01-02T19:22:34.843Z,8.80
2023-01-02T19:25:22.748Z,8.80
2023-01-02T19:27:51.132Z,8.80
2023-01-02T19:30:35.823Z,8.90
2023-01-02T19:33:38.141Z,8.80
2023-01-02T19:36:13.861Z,8.80
2023-01-02T19:38:46.216Z,8.80
2023-01-02T19:41:16.526Z,8.90
2023-01-02T19:43:43.485Z,8.80
2023-01-02T19:46:12.169Z,8.80
2023-01-02T19:48:42.194Z,8.80
2023-01-02T19:51:12.264Z,8.80
2023-01-02T19:53:41.313Z,8.80
2023-01-02T19:56:11.429Z,8.70
2023-01-02T19:58:43.611Z,8.70
2023-01-02T20:01:17.394Z,8.60
2023-01-02T20:03:46.737Z,8.60
2023-01-02T20:09:19.998Z,8.60
2023-01-02T20:12:14.291Z,8.50
2023-01-02T20:14:41.443Z,8.50
2023-01-02T20:17:08.884Z,8.50
2023-01-02T20:19:37.587Z,8.40
2023-01-02T20:22:17.837Z,8.40
2023-01-02T20:24:49.293Z,8.30
2023-01-02T20:27:20.711Z,8.30
2023-01-02T20:29:51.216Z,8.30
2023-01-02T20:32:22.099Z,8.30
2023-01-02T20:34:52.297Z,8.30
2023-01-02T20:37:21.200Z,8.20
2023-01-02T20:39:52.755Z,8.20
2023-01-02T20:42:29.649Z,8.20
2023-01-02T20:44:56.596Z,8.10
2023-01-02T20:47:26.520Z,8.00
2023-01-02T20:49:53.446Z,8.00
2023-01-02T20:52:22.401Z,8.00
2023-01-02T20:54:51.428Z,7.90
2023-01-02T20:57:21.511Z,7.90
2023-01-02T20:59:51.585Z,7.90
2023-01-02T21:02:19.714Z,7.90
2023-01-02T21:04:49.843Z,7.80
2023-01-02T21:07:16.761Z,7.80
2023-01-02T21:09:44.740Z,7.70
2023-01-02T21:12:31.640Z,7.60
2023-01-02T21:14:58.820Z,7.50
2023-01-02T21:17:25.798Z,7.50
2023-01-02T21:19:54.688Z,7.50
2023-01-02T21:22:21.618Z,7.50
2023-01-02T21:24:49.738Z,7.50
2023-01-02T21:27:16.724Z,7.50
2023-01-02T21:29:45.689Z,7.50
2023-01-02T21:32:12.589Z,7.50
2023-01-02T21:34:39.877Z,7.50
2023-01-02T21:37:06.770Z,7.50
2023-01-02T21:39:33.674Z,7.50
2023-01-02T21:42:18.786Z,7.50
2023-01-02T21:44:47.438Z,7.50
2023-01-02T21:47:16.107Z,7.50
2023-01-02T21:49:43.908Z,7.40
2023-01-02T21:52:11.164Z,7.40
2023-01-02T21:54:38.022Z,7.40
2023-01-02T21:57:05.161Z,7.30
2023-01-02T21:59:33.176Z,7.30
2023-01-02T22:02:02.482Z,7.20
2023-01-02T22:04:30.770Z,7.20
2023-01-02T22:07:30.751Z,7.20
2023-01-02T22:09:44.832Z,7.10
2023-01-02T22:12:11.880Z,7.10
2023-01-02T22:14:39.845Z,7.10
2023-01-02T22:17:09.288Z,7.10
2023-01-02T22:19:37.025Z,7.00
2023-01-02T22:22:04.877Z,7.00
2023-01-02T22:24:31.765Z,7.00
2023-01-02T22:27:02.100Z,6.90
2023-01-02T22:30:00.328Z,6.90
2023-01-02T22:32:17.442Z,6.90
2023-01-02T22:34:51.306Z,6.90
2023-01-02T22:37:26.550Z,6.90
2023-01-02T22:39:53.568Z,6.90
2023-01-02T22:43:07.461Z,6.80
2023-01-02T22:45:45.143Z,6.80
2023-01-02T22:48:35.243Z,6.80
2023-01-02T22:51:06.966Z,6.80
2023-01-02T22:53:37.861Z,6.80
2023-01-02T22:56:20.194Z,6.80
2023-01-02T22:58:50.503Z,6.70
2023-01-02T23:01:33.103Z,6.70
2023-01-02T23:04:01.190Z,6.70
2023-01-02T23:06:29.983Z,6.60
2023-01-02T23:08:58.993Z,6.60
2023-01-02T23:11:29.257Z,6.60
2023-01-02T23:13:56.957Z,6.50
2023-01-02T23:16:44.505Z,6.50
2023-01-02T23:19:16.511Z,6.50
2023-01-02T23:21:47.326Z,6.50
2023-01-02T23:24:17.441Z,6.50
2023-01-02T23:26:49.546Z,6.40
2023-01-02T23:29:17.598Z,6.40
2023-01-02T23:31:50.672Z,6.40
2023-01-02T23:34:20.227Z,6.40
2023-01-02T23:36:47.266Z,6.30
2023-01-02T23:39:17.371Z,6.30
2023-01-02T23:41:45.470Z,6.30
2023-01-02T23:44:13.443Z,6.20
2023-01-02T23:46:41.080Z,6.20
2023-01-02T23:49:09.753Z,6.20
2023-01-02T23:51:37.890Z,6.20
2023-01-02T23:54:05.934Z,6.10
2023-01-02T23:56:35.762Z,6.10
2023-01-02T23:59:05.439Z,6.10
